Terminal Aerodrome Forecast
Issued by NWS

Home | Current Version | Previous Version | Text Only | Print | Product List | Glossary On
Versions: 1 2 3 4 5 6 7 8 9 10 11 12 13 14
000
FTUS41 KRNK 232154 AAA
TAFLWB
TAF AMD
KLWB 232154Z 2322/2418 21007KT 3SM SHRA OVC008
      TEMPO 2322/2324 17014G24KT 1SM +SHRA OVC003
     FM240000 19011KT 1SM +SHRA OVC010
     FM240300 21008KT P6SM VCSH SCT025
     FM240600 24004KT P6SM BKN025 BKN040
     FM241000 24004KT P6SM SCT025=

USA.gov is the U.S. government's official web portal to all federal, state and local government web resources and services.